createdAt,value
2022-08-26T00:00:42.503Z,22.60
2022-08-26T00:01:44.794Z,22.64
2022-08-26T00:02:42.421Z,22.59
2022-08-26T00:03:42.477Z,22.57
2022-08-26T00:04:42.421Z,22.53
2022-08-26T00:05:42.421Z,22.47
2022-08-26T00:06:46.100Z,22.50
2022-08-26T00:07:42.360Z,22.52
2022-08-26T00:08:42.345Z,22.59
2022-08-26T00:09:42.348Z,22.64
2022-08-26T00:10:43.347Z,22.67
2022-08-26T00:11:42.311Z,22.69
2022-08-26T00:12:42.303Z,22.69
2022-08-26T00:13:42.286Z,22.67
2022-08-26T00:14:43.270Z,22.59
2022-08-26T00:15:42.261Z,22.52
2022-08-26T00:16:48.042Z,22.47
2022-08-26T00:17:43.223Z,22.46
2022-08-26T00:18:42.219Z,22.47
2022-08-26T00:19:42.224Z,22.52
2022-08-26T00:20:42.863Z,22.50
2022-08-26T00:21:42.199Z,22.46
2022-08-26T00:22:42.158Z,22.47
2022-08-26T00:23:42.150Z,22.49
2022-08-26T00:24:47.935Z,22.50
2022-08-26T00:25:43.123Z,22.52
2022-08-26T00:26:42.134Z,22.57
2022-08-26T00:27:42.102Z,22.53
2022-08-26T00:28:42.084Z,22.47
2022-08-26T00:29:42.114Z,22.41
2022-08-26T00:30:42.062Z,22.38
2022-08-26T00:31:42.161Z,22.35
2022-08-26T00:32:42.026Z,22.39
2022-08-26T00:33:42.050Z,22.39
2022-08-26T00:34:42.051Z,22.37
2022-08-26T00:35:43.838Z,22.41
2022-08-26T00:36:41.979Z,22.46
2022-08-26T00:37:41.966Z,22.44
2022-08-26T00:38:42.001Z,22.44
2022-08-26T00:39:41.956Z,22.49
2022-08-26T00:40:41.909Z,22.38
2022-08-26T00:41:41.913Z,22.37
2022-08-26T00:42:46.151Z,22.37
2022-08-26T00:43:47.371Z,22.37
2022-08-26T00:44:42.885Z,22.41
2022-08-26T00:45:41.930Z,22.44
2022-08-26T00:46:44.967Z,22.43
2022-08-26T00:47:42.872Z,22.37
2022-08-26T00:48:41.809Z,22.34
2022-08-26T00:49:41.845Z,22.39
2022-08-26T00:50:41.794Z,22.39
2022-08-26T00:51:41.777Z,22.37
2022-08-26T00:52:41.762Z,22.34
2022-08-26T00:53:41.768Z,22.29
2022-08-26T00:54:42.319Z,22.31
2022-08-26T00:55:41.791Z,22.34
2022-08-26T00:56:41.709Z,22.32
2022-08-26T00:57:41.722Z,22.32
2022-08-26T00:58:41.673Z,22.34
2022-08-26T00:59:41.666Z,22.37
2022-08-26T01:00:41.734Z,22.37
2022-08-26T01:01:41.644Z,22.31
2022-08-26T01:02:46.875Z,22.31
2022-08-26T01:03:42.649Z,22.31
2022-08-26T01:04:41.606Z,22.25
2022-08-26T01:05:41.607Z,22.28
2022-08-26T01:06:41.574Z,22.32
2022-08-26T01:07:41.580Z,22.31
2022-08-26T01:08:41.553Z,22.32
2022-08-26T01:09:41.557Z,22.32
2022-08-26T01:10:41.587Z,22.34
2022-08-26T01:11:41.515Z,22.32
2022-08-26T01:12:41.503Z,22.35
2022-08-26T01:13:41.529Z,22.39
2022-08-26T01:14:41.508Z,22.37
2022-08-26T01:15:42.489Z,22.39
2022-08-26T01:16:42.347Z,22.39
2022-08-26T01:17:41.439Z,22.37
2022-08-26T01:18:41.471Z,22.37
2022-08-26T01:19:41.420Z,22.29
2022-08-26T01:20:41.401Z,22.25
2022-08-26T01:21:41.393Z,22.31
2022-08-26T01:22:41.367Z,22.29
2022-08-26T01:23:41.362Z,22.29
2022-08-26T01:24:41.363Z,22.31
2022-08-26T01:25:43.052Z,22.29
2022-08-26T01:26:41.376Z,22.23
2022-08-26T01:27:41.347Z,22.20
2022-08-26T01:28:41.301Z,22.16
2022-08-26T01:29:41.291Z,22.16
2022-08-26T01:30:41.297Z,22.10
2022-08-26T01:31:41.321Z,22.01
2022-08-26T01:32:41.238Z,21.95
2022-08-26T01:33:42.456Z,21.98
2022-08-26T01:34:41.217Z,21.99
2022-08-26T01:35:41.262Z,22.01
2022-08-26T01:36:41.204Z,22.04
2022-08-26T01:37:45.035Z,22.06
2022-08-26T01:38:41.165Z,22.04
2022-08-26T01:39:41.274Z,22.10
2022-08-26T01:40:41.128Z,22.12
2022-08-26T01:41:41.138Z,22.12
2022-08-26T01:42:41.124Z,22.06
2022-08-26T01:43:41.132Z,22.10
2022-08-26T01:44:41.081Z,22.07
2022-08-26T01:45:41.170Z,22.04
2022-08-26T01:46:41.065Z,22.01
2022-08-26T01:47:41.516Z,22.02
2022-08-26T01:48:41.019Z,22.02
2022-08-26T01:49:41.088Z,22.04
2022-08-26T01:50:41.142Z,22.06
2022-08-26T01:51:40.989Z,22.04
2022-08-26T01:52:40.968Z,21.98
2022-08-26T01:53:41.768Z,21.98
2022-08-26T01:54:41.945Z,21.94
2022-08-26T01:55:40.968Z,21.90
2022-08-26T01:56:40.938Z,21.92
2022-08-26T01:57:40.921Z,21.92
2022-08-26T01:58:40.897Z,21.92
2022-08-26T01:59:40.885Z,21.95
2022-08-26T02:00:40.943Z,21.97
2022-08-26T02:01:40.881Z,21.98
2022-08-26T02:02:40.861Z,21.94
2022-08-26T02:03:42.361Z,21.91
2022-08-26T02:04:40.869Z,21.90
2022-08-26T02:05:40.815Z,21.88
2022-08-26T02:06:40.809Z,21.85
2022-08-26T02:07:40.825Z,21.82
2022-08-26T02:08:40.763Z,21.83
2022-08-26T02:09:44.768Z,21.85
2022-08-26T02:10:40.811Z,21.83
2022-08-26T02:11:40.757Z,21.72
2022-08-26T02:12:40.776Z,21.67
2022-08-26T02:13:40.732Z,21.69
2022-08-26T02:14:43.662Z,21.67
2022-08-26T02:15:40.693Z,21.67
2022-08-26T02:16:42.597Z,21.72
2022-08-26T02:17:40.646Z,21.74
2022-08-26T02:18:40.663Z,21.74
2022-08-26T02:19:44.580Z,21.69
2022-08-26T02:20:40.619Z,21.67
2022-08-26T02:21:40.627Z,21.69
2022-08-26T02:22:40.577Z,21.66
2022-08-26T02:23:40.632Z,21.66
2022-08-26T02:24:51.782Z,21.63
2022-08-26T02:25:40.588Z,21.63
2022-08-26T02:26:40.539Z,21.60
2022-08-26T02:27:40.539Z,21.57
2022-08-26T02:28:40.501Z,21.56
2022-08-26T02:29:40.536Z,21.51
2022-08-26T02:30:40.506Z,21.51
2022-08-26T02:31:40.528Z,21.48
2022-08-26T02:32:41.386Z,21.51
2022-08-26T02:33:43.185Z,21.57
2022-08-26T02:34:40.441Z,21.61
2022-08-26T02:35:40.423Z,21.66
2022-08-26T02:36:40.405Z,21.60
2022-08-26T02:37:41.892Z,21.56
2022-08-26T02:38:40.375Z,21.56
2022-08-26T02:39:40.371Z,21.56
2022-08-26T02:40:40.347Z,21.57
2022-08-26T02:41:44.875Z,21.59
2022-08-26T02:42:40.337Z,21.54
2022-08-26T02:43:40.315Z,21.50
2022-08-26T02:44:40.293Z,21.53
2022-08-26T02:45:40.316Z,21.57
2022-08-26T02:46:40.326Z,21.51
2022-08-26T02:47:40.278Z,21.50
2022-08-26T02:48:40.255Z,21.46
2022-08-26T02:49:40.239Z,21.44
2022-08-26T02:50:40.259Z,21.45
2022-08-26T02:51:40.222Z,21.48
2022-08-26T02:52:40.203Z,21.44
2022-08-26T02:53:40.200Z,21.45
2022-08-26T02:54:40.855Z,21.42
2022-08-26T02:55:40.165Z,21.44
2022-08-26T02:56:40.136Z,21.44
2022-08-26T02:57:40.243Z,21.45
2022-08-26T02:58:40.125Z,21.46
2022-08-26T02:59:40.103Z,21.46
2022-08-26T03:00:52.603Z,21.45
2022-08-26T03:01:41.215Z,21.45
2022-08-26T03:02:40.092Z,21.44
2022-08-26T03:03:40.063Z,21.45
2022-08-26T03:04:40.075Z,21.46
2022-08-26T03:05:40.030Z,21.48
2022-08-26T03:06:41.459Z,21.46
2022-08-26T03:07:40.017Z,21.42
2022-08-26T03:08:40.019Z,21.38
2022-08-26T03:09:39.984Z,21.30
2022-08-26T03:10:39.968Z,21.29
2022-08-26T03:11:39.968Z,21.32
2022-08-26T03:12:39.941Z,21.32
2022-08-26T03:13:39.944Z,21.29
2022-08-26T03:14:39.956Z,21.23
2022-08-26T03:15:39.894Z,21.21
2022-08-26T03:16:39.883Z,21.13
2022-08-26T03:17:39.888Z,21.11
2022-08-26T03:18:39.850Z,21.08
2022-08-26T03:19:39.861Z,21.09
2022-08-26T03:20:39.825Z,21.13
2022-08-26T03:21:39.832Z,21.08
2022-08-26T03:22:39.810Z,21.05
2022-08-26T03:23:39.791Z,21.02
2022-08-26T03:24:39.772Z,21.01
2022-08-26T03:25:39.800Z,21.01
2022-08-26T03:26:39.800Z,20.99
2022-08-26T03:27:40.741Z,21.04
2022-08-26T03:28:39.726Z,21.04
2022-08-26T03:29:39.712Z,21.05
2022-08-26T03:30:39.695Z,21.04
2022-08-26T03:31:40.943Z,21.06
2022-08-26T03:32:39.672Z,20.99
2022-08-26T03:33:39.655Z,21.01
2022-08-26T03:34:39.659Z,21.02
2022-08-26T03:35:39.643Z,21.04
2022-08-26T03:36:39.647Z,21.06
2022-08-26T03:37:39.629Z,21.09
2022-08-26T03:38:39.885Z,21.05
2022-08-26T03:39:39.640Z,21.02
2022-08-26T03:40:39.893Z,21.02
2022-08-26T03:41:39.556Z,21.05
2022-08-26T03:42:39.596Z,21.09
2022-08-26T03:43:39.633Z,21.08
2022-08-26T03:44:42.060Z,21.05
2022-08-26T03:45:39.499Z,21.04
2022-08-26T03:46:39.626Z,20.99
2022-08-26T03:47:39.539Z,20.95
2022-08-26T03:48:39.489Z,20.91
2022-08-26T03:49:39.477Z,20.90
2022-08-26T03:50:39.461Z,20.86
2022-08-26T03:51:39.421Z,20.83
2022-08-26T03:52:43.509Z,20.83
2022-08-26T03:53:39.397Z,20.83
2022-08-26T03:54:39.376Z,20.80
2022-08-26T03:55:39.372Z,20.84
2022-08-26T03:56:40.139Z,20.83
2022-08-26T03:57:39.357Z,20.83
2022-08-26T03:58:39.320Z,20.87
2022-08-26T03:59:39.318Z,20.91
2022-08-26T04:00:39.309Z,20.90
2022-08-26T04:01:39.345Z,20.84
2022-08-26T04:02:39.317Z,20.74
2022-08-26T04:03:39.260Z,20.76
2022-08-26T04:04:39.250Z,20.69
2022-08-26T04:05:39.243Z,20.69
2022-08-26T04:06:39.241Z,20.68
2022-08-26T04:07:39.203Z,20.69
2022-08-26T04:08:39.212Z,20.66
2022-08-26T04:09:39.174Z,20.68
2022-08-26T04:10:39.160Z,20.69
2022-08-26T04:11:39.317Z,20.71
2022-08-26T04:12:39.147Z,20.62
2022-08-26T04:13:39.122Z,20.64
2022-08-26T04:14:39.135Z,20.61
2022-08-26T04:15:39.119Z,20.64
2022-08-26T04:16:39.198Z,20.68
2022-08-26T04:17:39.074Z,20.69
2022-08-26T04:18:42.081Z,20.74
2022-08-26T04:19:40.042Z,20.72
2022-08-26T04:20:39.077Z,20.76
2022-08-26T04:21:39.029Z,20.76
2022-08-26T04:22:39.005Z,20.74
2022-08-26T04:23:47.709Z,20.72
2022-08-26T04:24:40.004Z,20.71
2022-08-26T04:25:38.991Z,20.66
2022-08-26T04:26:39.360Z,20.64
2022-08-26T04:27:38.955Z,20.62
2022-08-26T04:28:38.953Z,20.56
2022-08-26T04:29:38.918Z,20.54
2022-08-26T04:30:38.937Z,20.58
2022-08-26T04:31:38.937Z,20.62
2022-08-26T04:32:38.883Z,20.64
2022-08-26T04:33:41.880Z,20.59
2022-08-26T04:34:38.839Z,20.53
2022-08-26T04:35:38.829Z,20.51
2022-08-26T04:36:38.870Z,20.49
2022-08-26T04:37:38.828Z,20.50
2022-08-26T04:38:38.823Z,20.47
2022-08-26T04:39:38.777Z,20.43
2022-08-26T04:40:38.793Z,20.47
2022-08-26T04:41:38.770Z,20.49
2022-08-26T04:42:38.751Z,20.49
2022-08-26T04:43:38.733Z,20.43
2022-08-26T04:44:38.716Z,20.49
2022-08-26T04:45:38.716Z,20.51
2022-08-26T04:46:39.756Z,20.53
2022-08-26T04:47:38.679Z,20.49
2022-08-26T04:48:38.722Z,20.50
2022-08-26T04:49:38.675Z,20.47
2022-08-26T04:50:38.649Z,20.49
2022-08-26T04:51:38.637Z,20.53
2022-08-26T04:52:38.696Z,20.50
2022-08-26T04:53:38.594Z,20.51
2022-08-26T04:54:38.596Z,20.51
2022-08-26T04:55:39.780Z,20.54
2022-08-26T04:56:38.573Z,20.56
2022-08-26T04:57:38.541Z,20.53
2022-08-26T04:58:38.557Z,20.50
2022-08-26T04:59:39.425Z,20.46
2022-08-26T05:00:38.534Z,20.47
2022-08-26T05:01:39.671Z,20.49
2022-08-26T05:02:38.529Z,20.54
2022-08-26T05:03:38.527Z,20.59
2022-08-26T05:04:38.453Z,20.62
2022-08-26T05:05:38.452Z,20.62
2022-08-26T05:06:38.432Z,20.59
2022-08-26T05:07:38.409Z,20.64
2022-08-26T05:08:38.430Z,20.61
2022-08-26T05:09:38.418Z,20.64
2022-08-26T05:10:38.386Z,20.64
2022-08-26T05:11:38.379Z,20.65
2022-08-26T05:12:38.337Z,20.66
2022-08-26T05:13:38.361Z,20.66
2022-08-26T05:14:39.065Z,20.69
2022-08-26T05:15:38.339Z,20.74
2022-08-26T05:16:40.376Z,20.76
2022-08-26T05:17:38.280Z,20.77
2022-08-26T05:18:38.294Z,20.81
2022-08-26T05:19:38.633Z,20.84
2022-08-26T05:20:38.250Z,20.81
2022-08-26T05:21:38.224Z,20.87
2022-08-26T05:22:42.124Z,20.91
2022-08-26T05:23:38.231Z,20.96
2022-08-26T05:24:38.260Z,21.04
2022-08-26T05:25:38.213Z,21.09
2022-08-26T05:26:38.217Z,21.11
2022-08-26T05:27:38.159Z,21.13
2022-08-26T05:28:38.416Z,21.20
2022-08-26T05:29:38.114Z,21.24
2022-08-26T05:30:38.112Z,21.24
2022-08-26T05:31:38.148Z,21.24
2022-08-26T05:32:38.120Z,21.19
2022-08-26T05:33:38.143Z,21.14
2022-08-26T05:34:38.102Z,21.16
2022-08-26T05:35:38.041Z,21.26
2022-08-26T05:36:38.095Z,21.27
2022-08-26T05:37:38.070Z,21.30
2022-08-26T05:38:41.871Z,21.27
2022-08-26T05:39:38.018Z,21.24
2022-08-26T05:40:38.030Z,21.27
2022-08-26T05:41:38.542Z,21.27
2022-08-26T05:42:37.946Z,21.24
2022-08-26T05:43:37.941Z,21.27
2022-08-26T05:44:53.747Z,21.29
2022-08-26T05:45:43.535Z,21.36
2022-08-26T05:46:39.053Z,21.39
2022-08-26T05:47:37.942Z,21.45
2022-08-26T05:48:37.887Z,21.45
2022-08-26T05:49:37.882Z,21.42
2022-08-26T05:50:38.843Z,21.41
2022-08-26T05:51:37.873Z,21.48
2022-08-26T05:52:37.878Z,21.57
2022-08-26T05:53:37.793Z,21.61
2022-08-26T05:54:37.833Z,21.71
2022-08-26T05:55:37.771Z,21.76
2022-08-26T05:56:37.816Z,21.81
2022-08-26T05:57:42.227Z,21.95
2022-08-26T05:58:38.739Z,22.07
2022-08-26T05:59:37.720Z,22.09
2022-08-26T06:00:37.740Z,22.16
2022-08-26T06:01:37.775Z,22.23
2022-08-26T06:02:37.727Z,22.31
2022-08-26T06:03:37.703Z,22.37
2022-08-26T06:04:37.659Z,22.34
2022-08-26T06:05:39.113Z,22.34
2022-08-26T06:06:37.683Z,22.37
2022-08-26T06:07:37.614Z,22.32
2022-08-26T06:08:37.615Z,22.31
2022-08-26T06:09:37.578Z,22.37
2022-08-26T06:10:37.596Z,22.39
2022-08-26T06:11:37.575Z,22.43
2022-08-26T06:12:37.611Z,22.43
2022-08-26T06:13:37.524Z,22.46
2022-08-26T06:14:37.543Z,22.39
2022-08-26T06:15:37.547Z,22.41
2022-08-26T06:16:37.550Z,22.52
2022-08-26T06:17:37.504Z,22.62
2022-08-26T06:18:37.518Z,22.59
2022-08-26T06:19:37.450Z,22.67
2022-08-26T06:20:37.443Z,22.78
2022-08-26T06:21:37.446Z,22.90
2022-08-26T06:22:37.466Z,22.93
2022-08-26T06:23:37.395Z,22.94
2022-08-26T06:24:37.420Z,22.93
2022-08-26T06:25:37.416Z,22.99
2022-08-26T06:26:37.402Z,23.01
2022-08-26T06:27:37.386Z,22.94
2022-08-26T06:28:37.334Z,22.93
2022-08-26T06:29:37.566Z,22.97
2022-08-26T06:30:37.404Z,23.02
2022-08-26T06:31:37.324Z,22.96
2022-08-26T06:32:37.303Z,22.97
2022-08-26T06:33:37.284Z,22.96
2022-08-26T06:34:37.274Z,22.93
2022-08-26T06:35:37.247Z,22.99
2022-08-26T06:36:37.263Z,23.04
2022-08-26T06:37:37.246Z,23.08
2022-08-26T06:38:37.213Z,23.08
2022-08-26T06:39:41.045Z,22.99
2022-08-26T06:40:37.251Z,23.02
2022-08-26T06:41:40.174Z,22.97
2022-08-26T06:42:38.178Z,23.04
2022-08-26T06:43:37.142Z,23.11
2022-08-26T06:44:37.119Z,23.22
2022-08-26T06:45:37.150Z,23.31
2022-08-26T06:46:37.247Z,23.32
2022-08-26T06:47:37.137Z,23.35
2022-08-26T06:48:37.090Z,23.34
2022-08-26T06:49:37.120Z,23.20
2022-08-26T06:50:37.058Z,23.15
2022-08-26T06:51:37.064Z,23.20
2022-08-26T06:52:37.056Z,23.26
2022-08-26T06:53:37.019Z,23.34
2022-08-26T06:54:37.053Z,23.40
2022-08-26T06:55:36.986Z,23.35
2022-08-26T06:56:36.985Z,23.32
2022-08-26T06:57:37.740Z,23.26
2022-08-26T06:58:36.966Z,23.27
2022-08-26T06:59:36.934Z,23.32
2022-08-26T07:00:36.911Z,23.27
2022-08-26T07:01:37.033Z,23.34
2022-08-26T07:02:36.972Z,23.45
2022-08-26T07:03:39.613Z,23.47
2022-08-26T07:04:36.864Z,23.46
2022-08-26T07:05:36.853Z,23.35
2022-08-26T07:06:36.897Z,23.35
2022-08-26T07:07:36.837Z,23.42
2022-08-26T07:08:36.841Z,23.52
2022-08-26T07:09:36.886Z,23.58
2022-08-26T07:10:36.783Z,23.61
2022-08-26T07:11:36.792Z,23.65
2022-08-26T07:12:36.832Z,23.64
2022-08-26T07:13:36.756Z,23.65
2022-08-26T07:14:37.000Z,23.70
2022-08-26T07:15:36.738Z,23.70
2022-08-26T07:16:36.725Z,23.65
2022-08-26T07:17:36.705Z,23.58
2022-08-26T07:18:40.454Z,23.49
2022-08-26T07:19:36.703Z,23.47
2022-08-26T07:20:36.659Z,23.53
2022-08-26T07:21:36.673Z,23.60
2022-08-26T07:22:37.334Z,23.64
2022-08-26T07:23:36.621Z,23.62
2022-08-26T07:24:36.693Z,23.60
2022-08-26T07:25:36.584Z,23.57
2022-08-26T07:26:36.605Z,23.47
2022-08-26T07:27:36.594Z,23.45
2022-08-26T07:28:36.589Z,23.42
2022-08-26T07:29:36.539Z,23.43
2022-08-26T07:30:36.556Z,23.43
2022-08-26T07:31:39.389Z,23.47
2022-08-26T07:32:37.503Z,23.50
2022-08-26T07:33:36.523Z,23.50
2022-08-26T07:34:36.466Z,23.43
2022-08-26T07:35:36.458Z,23.46
2022-08-26T07:36:36.475Z,23.45
2022-08-26T07:37:39.253Z,23.42
2022-08-26T07:38:36.431Z,23.43
2022-08-26T07:39:36.423Z,23.50
2022-08-26T07:40:36.410Z,23.53
2022-08-26T07:41:36.421Z,23.62
2022-08-26T07:42:36.374Z,23.53
2022-08-26T07:43:36.367Z,23.46
2022-08-26T07:44:36.328Z,23.47
2022-08-26T07:45:36.336Z,23.53
2022-08-26T07:46:36.320Z,23.50
2022-08-26T07:47:36.317Z,23.53
2022-08-26T07:48:36.276Z,23.55
2022-08-26T07:49:36.356Z,23.65
2022-08-26T07:50:49.279Z,23.72
2022-08-26T07:51:37.239Z,23.80
2022-08-26T07:52:36.310Z,23.85
2022-08-26T07:53:36.270Z,23.77
2022-08-26T07:54:36.214Z,23.80
2022-08-26T07:55:36.301Z,23.85
2022-08-26T07:56:36.208Z,23.89
2022-08-26T07:57:36.159Z,23.94
2022-08-26T07:58:36.141Z,23.98
2022-08-26T07:59:36.144Z,23.95
2022-08-26T08:00:36.129Z,23.97
2022-08-26T08:01:36.192Z,24.04
2022-08-26T08:02:36.104Z,24.07
2022-08-26T08:03:36.126Z,23.98
2022-08-26T08:04:36.090Z,24.04
2022-08-26T08:05:36.141Z,24.16
2022-08-26T08:06:36.064Z,24.27
2022-08-26T08:07:45.005Z,24.38
2022-08-26T08:08:37.041Z,24.37
2022-08-26T08:09:36.001Z,24.38
2022-08-26T08:10:35.988Z,24.39
2022-08-26T08:11:36.071Z,24.42
2022-08-26T08:12:35.963Z,24.37
2022-08-26T08:13:36.041Z,24.44
2022-08-26T08:14:35.955Z,24.53
2022-08-26T08:15:35.953Z,24.63
2022-08-26T08:16:39.108Z,24.60
2022-08-26T08:17:36.903Z,24.63
2022-08-26T08:18:36.014Z,24.69
2022-08-26T08:19:38.953Z,24.76
2022-08-26T08:20:36.289Z,24.77
2022-08-26T08:21:35.881Z,24.77
2022-08-26T08:22:35.838Z,24.77
2022-08-26T08:23:35.914Z,24.68
2022-08-26T08:24:35.814Z,24.67
2022-08-26T08:25:35.831Z,24.64
2022-08-26T08:26:38.415Z,24.64
2022-08-26T08:27:35.790Z,24.60
2022-08-26T08:28:35.766Z,24.53
2022-08-26T08:29:35.741Z,24.50
2022-08-26T08:30:35.762Z,24.50
2022-08-26T08:32:37.021Z,24.60
2022-08-26T08:33:35.828Z,24.59
2022-08-26T08:34:35.725Z,24.57
2022-08-26T08:35:35.707Z,24.45
2022-08-26T08:36:36.173Z,24.42
2022-08-26T08:37:35.678Z,24.39
2022-08-26T08:38:35.663Z,24.37
2022-08-26T08:39:35.623Z,24.35
2022-08-26T08:40:35.679Z,24.26
2022-08-26T08:41:35.625Z,24.16
2022-08-26T08:42:35.605Z,24.13
2022-08-26T08:43:37.546Z,24.14
2022-08-26T08:44:35.595Z,24.19
2022-08-26T08:45:39.536Z,24.22
2022-08-26T08:46:35.565Z,24.16
2022-08-26T08:47:35.559Z,24.07
2022-08-26T08:48:35.502Z,23.97
2022-08-26T08:49:35.485Z,23.87
2022-08-26T08:50:35.474Z,23.82
2022-08-26T08:51:35.852Z,23.76
2022-08-26T08:52:35.486Z,23.76
2022-08-26T08:53:35.703Z,23.75
2022-08-26T08:54:35.465Z,23.72
2022-08-26T08:55:35.412Z,23.71
2022-08-26T08:56:36.078Z,23.65
2022-08-26T08:57:35.434Z,23.61
2022-08-26T08:58:35.698Z,23.61
2022-08-26T08:59:35.367Z,23.64
2022-08-26T09:00:39.132Z,23.67
2022-08-26T09:01:35.474Z,23.67
2022-08-26T09:02:35.403Z,23.67
2022-08-26T09:03:35.316Z,23.70
2022-08-26T09:04:35.289Z,23.64
2022-08-26T09:05:35.361Z,23.60
2022-08-26T09:06:35.273Z,23.58
2022-08-26T09:07:36.707Z,23.60
2022-08-26T09:08:35.477Z,23.65
2022-08-26T09:09:35.236Z,23.67
2022-08-26T09:10:35.215Z,23.72
2022-08-26T09:11:35.225Z,23.77
2022-08-26T09:12:35.201Z,23.79
2022-08-26T09:13:35.181Z,23.79
2022-08-26T09:14:35.166Z,23.83
2022-08-26T09:15:35.146Z,23.85
2022-08-26T09:16:35.185Z,23.83
2022-08-26T09:17:35.136Z,23.87
2022-08-26T09:18:35.104Z,23.87
2022-08-26T09:19:35.095Z,23.94
2022-08-26T09:20:35.069Z,24.00
2022-08-26T09:21:35.063Z,23.97
2022-08-26T09:22:35.056Z,23.95
2022-08-26T09:23:35.946Z,23.97
2022-08-26T09:24:37.338Z,23.98
2022-08-26T09:25:36.032Z,24.00
2022-08-26T09:26:35.424Z,24.00
2022-08-26T09:27:35.032Z,24.01
2022-08-26T09:28:34.977Z,24.02
2022-08-26T09:29:34.996Z,24.05
2022-08-26T09:30:35.013Z,24.05
2022-08-26T09:31:35.267Z,24.07
2022-08-26T09:32:34.951Z,24.05
2022-08-26T09:33:34.939Z,24.07
2022-08-26T09:34:34.931Z,24.10
2022-08-26T09:35:34.938Z,24.12
2022-08-26T09:36:39.139Z,24.14
2022-08-26T09:37:35.946Z,24.14
2022-08-26T09:38:35.687Z,24.14
2022-08-26T09:39:34.960Z,24.14
2022-08-26T09:40:35.335Z,24.17
2022-08-26T09:41:34.888Z,24.17
2022-08-26T09:42:34.869Z,24.16
2022-08-26T09:43:34.770Z,24.16
2022-08-26T09:44:34.785Z,24.20
2022-08-26T09:45:34.794Z,24.22
2022-08-26T09:46:34.859Z,24.23
2022-08-26T09:47:34.766Z,24.23
2022-08-26T09:48:35.545Z,24.23
2022-08-26T09:49:36.293Z,24.22
2022-08-26T09:50:34.678Z,24.22
2022-08-26T09:51:34.831Z,24.19
2022-08-26T09:52:34.953Z,24.20
2022-08-26T09:53:34.661Z,24.20
2022-08-26T09:54:34.630Z,24.16
2022-08-26T09:55:34.646Z,24.17
2022-08-26T09:56:34.606Z,24.17
2022-08-26T09:57:34.614Z,24.20
2022-08-26T09:58:34.658Z,24.19
2022-08-26T09:59:34.602Z,24.23
2022-08-26T10:00:34.803Z,24.23
2022-08-26T10:01:34.707Z,24.23
2022-08-26T10:02:34.628Z,24.26
2022-08-26T10:03:34.779Z,24.29
2022-08-26T10:04:34.548Z,24.34
2022-08-26T10:05:34.479Z,24.34
2022-08-26T10:06:34.471Z,24.35
2022-08-26T10:07:34.498Z,24.38
2022-08-26T10:08:34.761Z,24.38
2022-08-26T10:09:34.479Z,24.38
2022-08-26T10:10:34.418Z,24.38
2022-08-26T10:11:34.401Z,24.42
2022-08-26T10:12:34.419Z,24.42
2022-08-26T10:13:34.417Z,24.44
2022-08-26T10:14:34.427Z,24.44
2022-08-26T10:15:34.373Z,24.52
2022-08-26T10:16:34.427Z,24.49
2022-08-26T10:17:34.542Z,24.53
2022-08-26T10:18:35.252Z,24.53
2022-08-26T10:19:41.616Z,24.56
2022-08-26T10:20:35.355Z,24.59
2022-08-26T10:21:34.306Z,24.63
2022-08-26T10:22:34.261Z,24.60
2022-08-26T10:23:34.257Z,24.56
2022-08-26T10:24:34.232Z,24.53
2022-08-26T10:25:34.228Z,24.45
2022-08-26T10:26:34.198Z,24.42
2022-08-26T10:27:34.268Z,24.45
2022-08-26T10:28:34.176Z,24.42
2022-08-26T10:29:34.180Z,24.45
2022-08-26T10:30:34.158Z,24.42
2022-08-26T10:31:38.317Z,24.35
2022-08-26T10:32:35.448Z,24.23
2022-08-26T10:33:35.127Z,24.22
2022-08-26T10:34:34.098Z,24.19
2022-08-26T10:35:34.106Z,24.13
2022-08-26T10:36:39.357Z,24.10
2022-08-26T10:37:35.078Z,24.10
2022-08-26T10:38:34.052Z,24.12
2022-08-26T10:39:34.080Z,24.10
2022-08-26T10:40:34.100Z,24.16
2022-08-26T10:41:34.125Z,24.19
2022-08-26T10:42:34.037Z,24.24
2022-08-26T10:43:33.983Z,24.29
2022-08-26T10:44:33.969Z,24.31
2022-08-26T10:45:34.000Z,24.29
2022-08-26T10:46:33.943Z,24.29
2022-08-26T10:47:34.274Z,24.31
2022-08-26T10:48:35.794Z,24.29
2022-08-26T10:49:33.910Z,24.24
2022-08-26T10:50:33.885Z,24.20
2022-08-26T10:51:33.874Z,24.22
2022-08-26T10:52:33.892Z,24.24
2022-08-26T10:53:33.861Z,24.24
2022-08-26T10:54:33.884Z,24.24
2022-08-26T10:55:34.868Z,24.26
2022-08-26T10:56:33.841Z,24.31
2022-08-26T10:57:33.820Z,24.34
2022-08-26T10:58:33.781Z,24.35
2022-08-26T10:59:33.808Z,24.38
2022-08-26T11:00:33.756Z,24.37
2022-08-26T11:01:33.803Z,24.35
2022-08-26T11:02:33.789Z,24.31
2022-08-26T11:03:33.782Z,24.31
2022-08-26T11:04:35.151Z,24.35
2022-08-26T11:05:33.689Z,24.41
2022-08-26T11:06:33.972Z,24.45
2022-08-26T11:07:33.950Z,24.49
2022-08-26T11:08:33.690Z,24.53
2022-08-26T11:09:33.670Z,24.56
2022-08-26T11:10:33.624Z,24.52
2022-08-26T11:11:33.611Z,24.56
2022-08-26T11:12:33.626Z,24.61
2022-08-26T11:13:33.875Z,24.63
2022-08-26T11:14:46.021Z,24.67
2022-08-26T11:15:34.558Z,24.67
2022-08-26T11:16:33.547Z,24.64
2022-08-26T11:17:33.543Z,24.64
2022-08-26T11:18:33.525Z,24.59
2022-08-26T11:19:56.830Z,24.60
2022-08-26T11:20:34.496Z,24.64
2022-08-26T11:21:33.533Z,24.68
2022-08-26T11:22:33.598Z,24.67
2022-08-26T11:23:33.507Z,24.67
2022-08-26T11:24:37.325Z,24.64
2022-08-26T11:25:33.506Z,24.67
2022-08-26T11:26:37.763Z,24.67
2022-08-26T11:27:34.430Z,24.68
2022-08-26T11:28:33.384Z,24.71
2022-08-26T11:29:33.402Z,24.75
2022-08-26T11:30:33.414Z,24.76
2022-08-26T11:31:33.411Z,24.73
2022-08-26T11:32:33.383Z,24.77
2022-08-26T11:33:33.367Z,24.83
2022-08-26T11:34:33.322Z,24.82
2022-08-26T11:35:33.304Z,24.85
2022-08-26T11:36:33.286Z,24.88
2022-08-26T11:37:35.129Z,24.94
2022-08-26T11:38:33.276Z,24.97
2022-08-26T11:39:33.441Z,25.06
2022-08-26T11:40:33.284Z,25.13
2022-08-26T11:41:33.227Z,25.17
2022-08-26T11:42:33.260Z,25.15
2022-08-26T11:43:33.198Z,25.13
2022-08-26T11:44:33.213Z,25.17
2022-08-26T11:45:33.233Z,25.24
2022-08-26T11:46:33.167Z,25.28
2022-08-26T11:47:33.176Z,25.34
2022-08-26T11:48:33.139Z,25.38
2022-08-26T11:49:33.362Z,25.53
2022-08-26T11:50:33.155Z,25.64
2022-08-26T11:51:35.904Z,25.59
2022-08-26T11:52:34.151Z,25.68
2022-08-26T11:53:33.323Z,25.79
2022-08-26T11:54:35.811Z,25.83
2022-08-26T11:55:33.118Z,25.93
2022-08-26T11:56:33.042Z,26.02
2022-08-26T11:57:33.062Z,26.12
2022-08-26T11:58:32.989Z,26.25
2022-08-26T12:00:33.471Z,26.32
2022-08-26T12:01:32.964Z,26.42
2022-08-26T12:02:32.947Z,26.57
2022-08-26T12:03:33.058Z,26.68
2022-08-26T12:04:32.997Z,26.73
2022-08-26T12:05:32.899Z,26.81
2022-08-26T12:06:32.903Z,26.98
2022-08-26T12:07:32.882Z,27.21
2022-08-26T12:08:32.898Z,27.47
2022-08-26T12:09:32.855Z,27.67
2022-08-26T12:10:32.862Z,27.70
2022-08-26T12:11:32.842Z,27.86
2022-08-26T12:12:35.035Z,28.06
2022-08-26T12:13:32.798Z,28.26
2022-08-26T12:14:32.816Z,28.40
2022-08-26T12:15:32.777Z,28.46
2022-08-26T12:16:32.791Z,28.51
2022-08-26T12:17:32.787Z,28.58
2022-08-26T12:18:32.774Z,28.59
2022-08-26T12:19:33.264Z,28.54
2022-08-26T12:20:32.704Z,28.56
2022-08-26T12:21:34.731Z,28.48
2022-08-26T12:22:32.995Z,28.32
2022-08-26T12:23:32.726Z,28.23
2022-08-26T12:24:32.661Z,28.23
2022-08-26T12:25:32.955Z,28.21
2022-08-26T12:26:33.311Z,28.16
2022-08-26T12:27:32.726Z,28.25
2022-08-26T12:28:32.626Z,28.32
2022-08-26T12:29:32.638Z,28.21
2022-08-26T12:30:32.594Z,28.11
2022-08-26T12:31:32.916Z,28.07
2022-08-26T12:32:32.557Z,28.04
2022-08-26T12:33:32.549Z,28.06
2022-08-26T12:34:32.569Z,27.99
2022-08-26T12:35:32.534Z,27.92
2022-08-26T12:36:32.517Z,27.89
2022-08-26T12:37:32.510Z,27.89
2022-08-26T12:38:32.483Z,27.85
2022-08-26T12:39:32.475Z,27.80
2022-08-26T12:40:32.488Z,27.84
2022-08-26T12:41:32.498Z,27.89
2022-08-26T12:42:32.447Z,27.85
2022-08-26T12:43:32.474Z,27.94
2022-08-26T12:44:32.432Z,28.04
2022-08-26T12:45:32.439Z,28.17
2022-08-26T12:46:32.381Z,28.25
2022-08-26T12:47:43.048Z,28.41
2022-08-26T12:48:33.689Z,28.47
2022-08-26T12:49:32.363Z,28.59
2022-08-26T12:50:32.332Z,28.69
2022-08-26T12:51:32.351Z,28.73
2022-08-26T12:52:32.334Z,28.70
2022-08-26T12:53:32.303Z,28.70
2022-08-26T12:54:32.402Z,28.48